sensor_id;sensor_type;location;lat;lon;timestamp;temperature;humidity
37844;DHT22;63793;57.632;18.292;2022-11-20T00:01:16;-1.70;99.90
37844;DHT22;63793;57.632;18.292;2022-11-20T00:03:44;-1.70;99.90
37844;DHT22;63793;57.632;18.292;2022-11-20T00:06:13;-1.70;99.90
37844;DHT22;63793;57.632;18.292;2022-11-20T00:08:41;-1.70;99.90
37844;DHT22;63793;57.632;18.292;2022-11-20T00:11:14;-1.70;99.90
37844;DHT22;63793;57.632;18.292;2022-11-20T00:13:43;-1.70;99.90
37844;DHT22;63793;57.632;18.292;2022-11-20T00:16:12;-1.70;99.90
37844;DHT22;63793;57.632;18.292;2022-11-20T00:18:39;-1.70;99.90
37844;DHT22;63793;57.632;18.292;2022-11-20T00:21:10;-1.70;99.90
37844;DHT22;63793;57.632;18.292;2022-11-20T00:23:37;-1.70;99.90
37844;DHT22;63793;57.632;18.292;2022-11-20T00:26:11;-1.70;99.90
37844;DHT22;63793;57.632;18.292;2022-11-20T00:28:39;-1.70;99.90
37844;DHT22;63793;57.632;18.292;2022-11-20T00:31:13;-1.70;99.90
37844;DHT22;63793;57.632;18.292;2022-11-20T00:33:41;-1.70;99.90
37844;DHT22;63793;57.632;18.292;2022-11-20T00:36:13;-1.70;99.90
37844;DHT22;63793;57.632;18.292;2022-11-20T00:38:41;-1.70;99.90
37844;DHT22;63793;57.632;18.292;2022-11-20T00:41:09;-1.70;99.90
37844;DHT22;63793;57.632;18.292;2022-11-20T00:43:37;-1.70;99.90
37844;DHT22;63793;57.632;18.292;2022-11-20T00:46:07;-1.70;99.90
37844;DHT22;63793;57.632;18.292;2022-11-20T00:48:35;-1.70;99.90
37844;DHT22;63793;57.632;18.292;2022-11-20T00:51:02;-1.70;99.90
37844;DHT22;63793;57.632;18.292;2022-11-20T00:53:29;-1.70;99.90
37844;DHT22;63793;57.632;18.292;2022-11-20T00:56:01;-1.70;99.90
37844;DHT22;63793;57.632;18.292;2022-11-20T00:58:31;-1.70;99.90
37844;DHT22;63793;57.632;18.292;2022-11-20T01:01:16;-1.70;99.90
37844;DHT22;63793;57.632;18.292;2022-11-20T01:03:48;-1.70;99.90
37844;DHT22;63793;57.632;18.292;2022-11-20T01:08:48;-1.70;99.90
37844;DHT22;63793;57.632;18.292;2022-11-20T01:11:21;-1.70;99.90
37844;DHT22;63793;57.632;18.292;2022-11-20T01:13:50;-1.70;99.90
37844;DHT22;63793;57.632;18.292;2022-11-20T01:16:22;-1.70;99.90
37844;DHT22;63793;57.632;18.292;2022-11-20T01:18:51;-1.70;99.90
37844;DHT22;63793;57.632;18.292;2022-11-20T01:21:21;-1.70;99.90
37844;DHT22;63793;57.632;18.292;2022-11-20T01:23:49;-1.70;99.90
37844;DHT22;63793;57.632;18.292;2022-11-20T01:26:25;-1.70;99.90
37844;DHT22;63793;57.632;18.292;2022-11-20T01:28:54;-1.70;99.90
37844;DHT22;63793;57.632;18.292;2022-11-20T01:31:33;-1.70;99.90
37844;DHT22;63793;57.632;18.292;2022-11-20T01:34:06;-1.70;99.90
37844;DHT22;63793;57.632;18.292;2022-11-20T01:36:35;-1.70;99.90
37844;DHT22;63793;57.632;18.292;2022-11-20T01:39:14;-1.70;99.90
37844;DHT22;63793;57.632;18.292;2022-11-20T01:41:42;-1.70;99.90
37844;DHT22;63793;57.632;18.292;2022-11-20T01:50:17;-1.70;99.90
37844;DHT22;63793;57.632;18.292;2022-11-20T01:53:05;-1.70;99.90
37844;DHT22;63793;57.632;18.292;2022-11-20T01:55:37;-1.70;99.90
37844;DHT22;63793;57.632;18.292;2022-11-20T01:58:06;-1.70;99.90
37844;DHT22;63793;57.632;18.292;2022-11-20T02:00:34;-1.70;99.90
37844;DHT22;63793;57.632;18.292;2022-11-20T02:03:05;-1.70;99.90
37844;DHT22;63793;57.632;18.292;2022-11-20T02:05:45;-1.70;99.90
37844;DHT22;63793;57.632;18.292;2022-11-20T02:08:13;-1.70;99.90
37844;DHT22;63793;57.632;18.292;2022-11-20T02:10:40;-1.70;99.90
37844;DHT22;63793;57.632;18.292;2022-11-20T02:13:07;-1.70;99.90
37844;DHT22;63793;57.632;18.292;2022-11-20T02:15:53;-1.70;99.90
37844;DHT22;63793;57.632;18.292;2022-11-20T02:18:21;-1.70;99.90
37844;DHT22;63793;57.632;18.292;2022-11-20T02:20:53;-1.70;99.90
37844;DHT22;63793;57.632;18.292;2022-11-20T02:25:51;-1.70;99.90
37844;DHT22;63793;57.632;18.292;2022-11-20T02:28:20;-1.70;99.90
37844;DHT22;63793;57.632;18.292;2022-11-20T02:30:47;-1.70;99.90
37844;DHT22;63793;57.632;18.292;2022-11-20T02:33:14;-1.70;99.90
37844;DHT22;63793;57.632;18.292;2022-11-20T02:35:44;-1.70;99.90
37844;DHT22;63793;57.632;18.292;2022-11-20T02:38:11;-1.70;99.90
37844;DHT22;63793;57.632;18.292;2022-11-20T02:40:38;-1.70;99.90
37844;DHT22;63793;57.632;18.292;2022-11-20T02:43:05;-1.70;99.90
37844;DHT22;63793;57.632;18.292;2022-11-20T02:45:32;-1.70;99.90
37844;DHT22;63793;57.632;18.292;2022-11-20T02:48:00;-1.70;99.90
37844;DHT22;63793;57.632;18.292;2022-11-20T02:50:27;-1.70;99.90
37844;DHT22;63793;57.632;18.292;2022-11-20T02:52:54;-1.70;99.90
37844;DHT22;63793;57.632;18.292;2022-11-20T02:55:20;-1.70;99.90
37844;DHT22;63793;57.632;18.292;2022-11-20T02:57:47;-1.70;99.90
37844;DHT22;63793;57.632;18.292;2022-11-20T03:00:14;-1.70;99.90
37844;DHT22;63793;57.632;18.292;2022-11-20T03:02:41;-1.70;99.90
37844;DHT22;63793;57.632;18.292;2022-11-20T03:05:08;-1.70;99.90
37844;DHT22;63793;57.632;18.292;2022-11-20T03:07:35;-1.70;99.90
37844;DHT22;63793;57.632;18.292;2022-11-20T03:10:03;-1.70;99.90
37844;DHT22;63793;57.632;18.292;2022-11-20T03:12:30;-1.70;99.90
37844;DHT22;63793;57.632;18.292;2022-11-20T03:14:57;-1.70;99.90
37844;DHT22;63793;57.632;18.292;2022-11-20T03:17:24;-1.70;99.90
37844;DHT22;63793;57.632;18.292;2022-11-20T03:19:51;-1.70;99.90
37844;DHT22;63793;57.632;18.292;2022-11-20T03:22:18;-1.70;99.90
37844;DHT22;63793;57.632;18.292;2022-11-20T03:24:45;-1.70;99.90
37844;DHT22;63793;57.632;18.292;2022-11-20T03:27:12;-1.70;99.90
37844;DHT22;63793;57.632;18.292;2022-11-20T03:29:40;-1.70;99.90
37844;DHT22;63793;57.632;18.292;2022-11-20T03:32:06;-1.70;99.90
37844;DHT22;63793;57.632;18.292;2022-11-20T03:34:33;-1.70;99.90
37844;DHT22;63793;57.632;18.292;2022-11-20T03:37:00;-1.70;99.90
37844;DHT22;63793;57.632;18.292;2022-11-20T03:39:27;-1.70;99.90
37844;DHT22;63793;57.632;18.292;2022-11-20T03:41:54;-1.70;99.90
37844;DHT22;63793;57.632;18.292;2022-11-20T03:44:21;-1.70;99.90
37844;DHT22;63793;57.632;18.292;2022-11-20T03:46:48;-1.70;99.90
37844;DHT22;63793;57.632;18.292;2022-11-20T03:49:15;-1.70;99.90
37844;DHT22;63793;57.632;18.292;2022-11-20T03:51:42;-1.70;99.90
37844;DHT22;63793;57.632;18.292;2022-11-20T03:54:10;-1.70;99.90
37844;DHT22;63793;57.632;18.292;2022-11-20T03:56:38;-1.70;99.90
37844;DHT22;63793;57.632;18.292;2022-11-20T03:59:06;-1.70;99.90
37844;DHT22;63793;57.632;18.292;2022-11-20T04:01:35;-1.80;99.90
37844;DHT22;63793;57.632;18.292;2022-11-20T04:04:03;-1.70;99.90
37844;DHT22;63793;57.632;18.292;2022-11-20T04:06:34;-1.70;99.90
37844;DHT22;63793;57.632;18.292;2022-11-20T04:09:02;-1.70;99.90
37844;DHT22;63793;57.632;18.292;2022-11-20T04:11:31;-1.70;99.90
37844;DHT22;63793;57.632;18.292;2022-11-20T04:14:03;-1.80;99.90
37844;DHT22;63793;57.632;18.292;2022-11-20T04:16:33;-1.70;99.90
37844;DHT22;63793;57.632;18.292;2022-11-20T04:19:03;-1.80;99.90
37844;DHT22;63793;57.632;18.292;2022-11-20T04:21:30;-1.80;99.90
37844;DHT22;63793;57.632;18.292;2022-11-20T04:23:57;-1.80;99.90
37844;DHT22;63793;57.632;18.292;2022-11-20T04:26:26;-1.80;99.90
37844;DHT22;63793;57.632;18.292;2022-11-20T04:28:53;-1.80;99.90
37844;DHT22;63793;57.632;18.292;2022-11-20T04:31:23;-1.80;99.90
37844;DHT22;63793;57.632;18.292;2022-11-20T04:33:50;-1.80;99.90
37844;DHT22;63793;57.632;18.292;2022-11-20T04:36:19;-1.80;99.90
37844;DHT22;63793;57.632;18.292;2022-11-20T04:38:49;-1.80;99.90
37844;DHT22;63793;57.632;18.292;2022-11-20T04:41:25;-1.80;99.90
37844;DHT22;63793;57.632;18.292;2022-11-20T04:43:54;-1.80;99.90
37844;DHT22;63793;57.632;18.292;2022-11-20T04:46:27;-1.90;99.90
37844;DHT22;63793;57.632;18.292;2022-11-20T04:48:54;-1.80;99.90
37844;DHT22;63793;57.632;18.292;2022-11-20T04:51:22;-1.80;99.90
37844;DHT22;63793;57.632;18.292;2022-11-20T04:53:49;-1.90;99.90
37844;DHT22;63793;57.632;18.292;2022-11-20T04:56:16;-1.90;99.90
37844;DHT22;63793;57.632;18.292;2022-11-20T04:58:43;-1.90;99.90
37844;DHT22;63793;57.632;18.292;2022-11-20T05:01:15;-1.90;99.90
37844;DHT22;63793;57.632;18.292;2022-11-20T05:03:44;-1.90;99.90
37844;DHT22;63793;57.632;18.292;2022-11-20T05:06:13;-1.90;99.90
37844;DHT22;63793;57.632;18.292;2022-11-20T05:08:41;-1.90;99.90
37844;DHT22;63793;57.632;18.292;2022-11-20T05:11:10;-1.90;99.90
37844;DHT22;63793;57.632;18.292;2022-11-20T05:13:38;-2.00;99.90
37844;DHT22;63793;57.632;18.292;2022-11-20T05:16:10;-2.00;99.90
37844;DHT22;63793;57.632;18.292;2022-11-20T05:18:38;-2.00;99.90
37844;DHT22;63793;57.632;18.292;2022-11-20T05:21:06;-2.00;99.90
37844;DHT22;63793;57.632;18.292;2022-11-20T05:23:33;-2.00;99.90
37844;DHT22;63793;57.632;18.292;2022-11-20T05:26:01;-2.00;99.90
37844;DHT22;63793;57.632;18.292;2022-11-20T05:28:29;-2.00;99.90
37844;DHT22;63793;57.632;18.292;2022-11-20T05:31:04;-2.10;99.90
37844;DHT22;63793;57.632;18.292;2022-11-20T05:33:32;-2.10;99.90
37844;DHT22;63793;57.632;18.292;2022-11-20T05:35:59;-2.10;99.90
37844;DHT22;63793;57.632;18.292;2022-11-20T05:38:26;-2.10;99.90
37844;DHT22;63793;57.632;18.292;2022-11-20T05:40:52;-2.10;99.90
37844;DHT22;63793;57.632;18.292;2022-11-20T05:43:19;-2.20;99.90
37844;DHT22;63793;57.632;18.292;2022-11-20T05:45:55;-2.30;99.90
37844;DHT22;63793;57.632;18.292;2022-11-20T05:48:22;-2.30;99.90
37844;DHT22;63793;57.632;18.292;2022-11-20T05:50:49;-2.30;99.90
37844;DHT22;63793;57.632;18.292;2022-11-20T05:53:16;-2.30;99.90
37844;DHT22;63793;57.632;18.292;2022-11-20T05:55:43;-2.30;99.90
37844;DHT22;63793;57.632;18.292;2022-11-20T05:58:10;-2.40;99.90
37844;DHT22;63793;57.632;18.292;2022-11-20T06:00:37;-2.40;99.90
37844;DHT22;63793;57.632;18.292;2022-11-20T06:03:04;-2.50;99.90
37844;DHT22;63793;57.632;18.292;2022-11-20T06:05:33;-2.40;99.90
37844;DHT22;63793;57.632;18.292;2022-11-20T06:08:00;-2.50;99.90
37844;DHT22;63793;57.632;18.292;2022-11-20T06:10:27;-2.50;99.90
37844;DHT22;63793;57.632;18.292;2022-11-20T06:12:57;-2.40;99.90
37844;DHT22;63793;57.632;18.292;2022-11-20T06:15:24;-2.40;99.90
37844;DHT22;63793;57.632;18.292;2022-11-20T06:17:55;-2.40;99.90
37844;DHT22;63793;57.632;18.292;2022-11-20T06:20:22;-2.40;99.90
37844;DHT22;63793;57.632;18.292;2022-11-20T06:22:49;-2.40;99.90
37844;DHT22;63793;57.632;18.292;2022-11-20T06:25:15;-2.40;99.90
37844;DHT22;63793;57.632;18.292;2022-11-20T06:27:42;-2.40;99.90
37844;DHT22;63793;57.632;18.292;2022-11-20T06:30:10;-2.40;99.90
37844;DHT22;63793;57.632;18.292;2022-11-20T06:32:37;-2.40;99.90
37844;DHT22;63793;57.632;18.292;2022-11-20T06:35:04;-2.40;99.90
37844;DHT22;63793;57.632;18.292;2022-11-20T06:37:31;-2.40;99.90
37844;DHT22;63793;57.632;18.292;2022-11-20T06:39:58;-2.40;99.90
37844;DHT22;63793;57.632;18.292;2022-11-20T06:42:24;-2.40;99.90
37844;DHT22;63793;57.632;18.292;2022-11-20T06:44:51;-2.40;99.90
37844;DHT22;63793;57.632;18.292;2022-11-20T06:47:18;-2.40;99.90
37844;DHT22;63793;57.632;18.292;2022-11-20T06:49:48;-2.40;99.90
37844;DHT22;63793;57.632;18.292;2022-11-20T06:52:15;-2.40;99.90
37844;DHT22;63793;57.632;18.292;2022-11-20T06:54:42;-2.30;99.90
37844;DHT22;63793;57.632;18.292;2022-11-20T06:57:09;-2.30;99.90
37844;DHT22;63793;57.632;18.292;2022-11-20T06:59:36;-2.30;99.90
37844;DHT22;63793;57.632;18.292;2022-11-20T07:02:03;-2.30;99.90
37844;DHT22;63793;57.632;18.292;2022-11-20T07:04:30;-2.30;99.90
37844;DHT22;63793;57.632;18.292;2022-11-20T07:06:57;-2.30;99.90
37844;DHT22;63793;57.632;18.292;2022-11-20T07:09:24;-2.20;99.90
37844;DHT22;63793;57.632;18.292;2022-11-20T07:11:51;-2.20;99.90
37844;DHT22;63793;57.632;18.292;2022-11-20T07:14:18;-2.20;99.90
37844;DHT22;63793;57.632;18.292;2022-11-20T07:16:45;-2.10;99.90
37844;DHT22;63793;57.632;18.292;2022-11-20T07:19:12;-2.10;99.90
37844;DHT22;63793;57.632;18.292;2022-11-20T07:21:39;-2.00;99.90
37844;DHT22;63793;57.632;18.292;2022-11-20T07:24:06;-2.00;99.90
37844;DHT22;63793;57.632;18.292;2022-11-20T07:26:33;-2.00;99.90
37844;DHT22;63793;57.632;18.292;2022-11-20T07:29:00;-2.00;99.90
37844;DHT22;63793;57.632;18.292;2022-11-20T07:31:27;-1.90;99.90
37844;DHT22;63793;57.632;18.292;2022-11-20T07:33:54;-1.90;99.90
37844;DHT22;63793;57.632;18.292;2022-11-20T07:36:21;-1.80;99.90
37844;DHT22;63793;57.632;18.292;2022-11-20T07:38:48;-1.80;99.90
37844;DHT22;63793;57.632;18.292;2022-11-20T07:41:15;-1.70;99.90
37844;DHT22;63793;57.632;18.292;2022-11-20T07:43:42;-1.70;99.90
37844;DHT22;63793;57.632;18.292;2022-11-20T07:46:09;-1.70;99.90
37844;DHT22;63793;57.632;18.292;2022-11-20T07:48:35;-1.60;99.90
37844;DHT22;63793;57.632;18.292;2022-11-20T07:51:02;-1.60;99.90
37844;DHT22;63793;57.632;18.292;2022-11-20T07:53:29;-1.60;99.90
37844;DHT22;63793;57.632;18.292;2022-11-20T07:56:00;-1.50;99.90
37844;DHT22;63793;57.632;18.292;2022-11-20T07:58:29;-1.40;99.90
37844;DHT22;63793;57.632;18.292;2022-11-20T08:00:56;-1.30;99.90
37844;DHT22;63793;57.632;18.292;2022-11-20T08:03:23;-1.30;99.90
37844;DHT22;63793;57.632;18.292;2022-11-20T08:05:51;-1.30;99.90
37844;DHT22;63793;57.632;18.292;2022-11-20T08:08:18;-1.30;99.90
37844;DHT22;63793;57.632;18.292;2022-11-20T08:10:45;-1.20;99.90
37844;DHT22;63793;57.632;18.292;2022-11-20T08:13:12;-1.20;99.90
37844;DHT22;63793;57.632;18.292;2022-11-20T08:15:58;-1.20;99.90
37844;DHT22;63793;57.632;18.292;2022-11-20T08:18:25;-1.20;99.90
37844;DHT22;63793;57.632;18.292;2022-11-20T08:21:01;-1.20;99.90
37844;DHT22;63793;57.632;18.292;2022-11-20T08:23:28;-1.20;99.90
37844;DHT22;63793;57.632;18.292;2022-11-20T08:25:55;-1.20;99.90
37844;DHT22;63793;57.632;18.292;2022-11-20T08:28:22;-1.10;99.90
37844;DHT22;63793;57.632;18.292;2022-11-20T08:30:49;-1.10;99.90
37844;DHT22;63793;57.632;18.292;2022-11-20T08:33:17;-1.10;99.90
37844;DHT22;63793;57.632;18.292;2022-11-20T08:35:45;-1.10;99.90
37844;DHT22;63793;57.632;18.292;2022-11-20T08:38:12;-1.10;99.90
37844;DHT22;63793;57.632;18.292;2022-11-20T08:40:39;-1.10;99.90
37844;DHT22;63793;57.632;18.292;2022-11-20T08:43:06;-1.10;99.90
37844;DHT22;63793;57.632;18.292;2022-11-20T08:45:33;-1.00;99.90
37844;DHT22;63793;57.632;18.292;2022-11-20T08:48:02;-1.00;99.90
37844;DHT22;63793;57.632;18.292;2022-11-20T08:50:30;-0.90;99.90
37844;DHT22;63793;57.632;18.292;2022-11-20T08:53:05;-0.90;99.90
37844;DHT22;63793;57.632;18.292;2022-11-20T08:55:32;-0.90;99.90
37844;DHT22;63793;57.632;18.292;2022-11-20T08:58:05;-0.80;99.90
37844;DHT22;63793;57.632;18.292;2022-11-20T09:00:33;-0.80;99.90
37844;DHT22;63793;57.632;18.292;2022-11-20T09:03:01;-0.70;99.90
37844;DHT22;63793;57.632;18.292;2022-11-20T09:05:28;-0.70;99.90
37844;DHT22;63793;57.632;18.292;2022-11-20T09:07:56;-0.60;99.90
37844;DHT22;63793;57.632;18.292;2022-11-20T09:10:24;-0.60;99.90
37844;DHT22;63793;57.632;18.292;2022-11-20T09:12:54;-0.50;99.90
37844;DHT22;63793;57.632;18.292;2022-11-20T09:15:25;-0.50;99.90
37844;DHT22;63793;57.632;18.292;2022-11-20T09:20:19;-0.40;99.90
37844;DHT22;63793;57.632;18.292;2022-11-20T09:22:46;-0.40;99.90
37844;DHT22;63793;57.632;18.292;2022-11-20T09:25:13;-0.30;99.90
37844;DHT22;63793;57.632;18.292;2022-11-20T09:27:40;-0.30;99.90
37844;DHT22;63793;57.632;18.292;2022-11-20T09:30:10;-0.20;99.90
37844;DHT22;63793;57.632;18.292;2022-11-20T09:32:44;-0.20;99.90
37844;DHT22;63793;57.632;18.292;2022-11-20T09:35:11;-0.20;99.90
37844;DHT22;63793;57.632;18.292;2022-11-20T09:37:38;-0.10;99.90
37844;DHT22;63793;57.632;18.292;2022-11-20T09:40:05;-0.20;99.90
37844;DHT22;63793;57.632;18.292;2022-11-20T09:42:50;-0.10;99.90
37844;DHT22;63793;57.632;18.292;2022-11-20T09:56:23;0.10;99.90
37844;DHT22;63793;57.632;18.292;2022-11-20T09:58:53;0.10;99.90
37844;DHT22;63793;57.632;18.292;2022-11-20T10:01:25;0.10;99.90
37844;DHT22;63793;57.632;18.292;2022-11-20T10:09:44;0.10;99.90
37844;DHT22;63793;57.632;18.292;2022-11-20T10:12:40;0.10;99.90
37844;DHT22;63793;57.632;18.292;2022-11-20T10:21:13;0.10;99.90
37844;DHT22;63793;57.632;18.292;2022-11-20T10:26:17;0.20;99.90
37844;DHT22;63793;57.632;18.292;2022-11-20T10:28:55;0.20;99.90
37844;DHT22;63793;57.632;18.292;2022-11-20T10:31:36;0.30;99.90
37844;DHT22;63793;57.632;18.292;2022-11-20T10:40:14;0.30;99.90
37844;DHT22;63793;57.632;18.292;2022-11-20T10:42:56;0.40;99.90
37844;DHT22;63793;57.632;18.292;2022-11-20T10:48:12;0.50;99.90
37844;DHT22;63793;57.632;18.292;2022-11-20T10:50:50;0.50;99.90
37844;DHT22;63793;57.632;18.292;2022-11-20T10:53:42;0.50;99.90
37844;DHT22;63793;57.632;18.292;2022-11-20T10:56:52;0.60;99.90
37844;DHT22;63793;57.632;18.292;2022-11-20T11:02:19;0.60;99.90
37844;DHT22;63793;57.632;18.292;2022-11-20T11:04:52;0.50;99.90
37844;DHT22;63793;57.632;18.292;2022-11-20T11:07:30;0.50;99.90
37844;DHT22;63793;57.632;18.292;2022-11-20T11:10:00;0.50;99.90
37844;DHT22;63793;57.632;18.292;2022-11-20T11:12:28;0.50;99.90
37844;DHT22;63793;57.632;18.292;2022-11-20T11:14:56;0.50;99.90
37844;DHT22;63793;57.632;18.292;2022-11-20T11:17:29;0.50;99.90
37844;DHT22;63793;57.632;18.292;2022-11-20T11:20:14;0.40;99.90
37844;DHT22;63793;57.632;18.292;2022-11-20T11:25:24;0.40;99.90
37844;DHT22;63793;57.632;18.292;2022-11-20T11:27:52;0.40;99.90
37844;DHT22;63793;57.632;18.292;2022-11-20T11:30:28;0.40;99.90
37844;DHT22;63793;57.632;18.292;2022-11-20T11:33:04;0.40;99.90
37844;DHT22;63793;57.632;18.292;2022-11-20T11:35:33;0.40;99.90
37844;DHT22;63793;57.632;18.292;2022-11-20T11:38:16;0.40;99.90
37844;DHT22;63793;57.632;18.292;2022-11-20T11:40:44;0.40;99.90
37844;DHT22;63793;57.632;18.292;2022-11-20T11:43:48;0.40;99.90
37844;DHT22;63793;57.632;18.292;2022-11-20T11:46:35;0.40;99.90
37844;DHT22;63793;57.632;18.292;2022-11-20T11:55:15;0.30;99.90
37844;DHT22;63793;57.632;18.292;2022-11-20T11:57:48;0.30;99.90
37844;DHT22;63793;57.632;18.292;2022-11-20T12:00:21;0.30;99.90
37844;DHT22;63793;57.632;18.292;2022-11-20T12:02:56;0.30;99.90
37844;DHT22;63793;57.632;18.292;2022-11-20T12:05:42;0.30;99.90
37844;DHT22;63793;57.632;18.292;2022-11-20T12:12:05;0.30;99.90
37844;DHT22;63793;57.632;18.292;2022-11-20T12:14:34;0.30;99.90
37844;DHT22;63793;57.632;18.292;2022-11-20T12:17:04;0.30;99.90
37844;DHT22;63793;57.632;18.292;2022-11-20T12:19:34;0.30;99.90
37844;DHT22;63793;57.632;18.292;2022-11-20T12:30:21;0.30;99.90
37844;DHT22;63793;57.632;18.292;2022-11-20T12:57:23;0.00;99.90
37844;DHT22;63793;57.632;18.292;2022-11-20T13:02:55;0.00;99.90
37844;DHT22;63793;57.632;18.292;2022-11-20T13:08:02;-0.10;99.90
37844;DHT22;63793;57.632;18.292;2022-11-20T13:18:56;-0.20;99.90
37844;DHT22;63793;57.632;18.292;2022-11-20T13:21:40;-0.20;99.90
37844;DHT22;63793;57.632;18.292;2022-11-20T13:24:21;-0.20;99.90
37844;DHT22;63793;57.632;18.292;2022-11-20T13:29:45;-0.20;99.90
37844;DHT22;63793;57.632;18.292;2022-11-20T13:32:16;-0.30;99.90
37844;DHT22;63793;57.632;18.292;2022-11-20T13:35:04;-0.30;99.90
37844;DHT22;63793;57.632;18.292;2022-11-20T13:37:38;-0.30;99.90
37844;DHT22;63793;57.632;18.292;2022-11-20T13:42:40;-0.40;99.90
37844;DHT22;63793;57.632;18.292;2022-11-20T13:45:28;-0.40;99.90
37844;DHT22;63793;57.632;18.292;2022-11-20T13:47:56;-0.40;99.90
37844;DHT22;63793;57.632;18.292;2022-11-20T13:50:46;-0.40;99.90
37844;DHT22;63793;57.632;18.292;2022-11-20T13:56:16;-0.40;99.90
37844;DHT22;63793;57.632;18.292;2022-11-20T14:01:54;-0.40;99.90
37844;DHT22;63793;57.632;18.292;2022-11-20T14:04:34;-0.50;99.90
37844;DHT22;63793;57.632;18.292;2022-11-20T14:07:05;-0.50;99.90
37844;DHT22;63793;57.632;18.292;2022-11-20T14:09:33;-0.50;99.90
37844;DHT22;63793;57.632;18.292;2022-11-20T14:12:03;-0.50;99.90
37844;DHT22;63793;57.632;18.292;2022-11-20T14:14:31;-0.60;99.90
37844;DHT22;63793;57.632;18.292;2022-11-20T14:17:20;-0.60;99.90
37844;DHT22;63793;57.632;18.292;2022-11-20T14:19:49;-0.60;99.90
37844;DHT22;63793;57.632;18.292;2022-11-20T14:22:24;-0.50;99.90
37844;DHT22;63793;57.632;18.292;2022-11-20T14:25:19;-0.60;99.90
37844;DHT22;63793;57.632;18.292;2022-11-20T14:27:55;-0.60;99.90
37844;DHT22;63793;57.632;18.292;2022-11-20T14:30:38;-0.60;99.90
37844;DHT22;63793;57.632;18.292;2022-11-20T14:33:12;-0.70;99.90
37844;DHT22;63793;57.632;18.292;2022-11-20T14:36:00;-0.70;99.90
37844;DHT22;63793;57.632;18.292;2022-11-20T14:38:28;-0.70;99.90
37844;DHT22;63793;57.632;18.292;2022-11-20T14:41:08;-0.70;99.90
37844;DHT22;63793;57.632;18.292;2022-11-20T14:43:36;-0.80;99.90
37844;DHT22;63793;57.632;18.292;2022-11-20T14:46:07;-0.80;99.90
37844;DHT22;63793;57.632;18.292;2022-11-20T14:48:41;-0.80;99.90
37844;DHT22;63793;57.632;18.292;2022-11-20T14:51:11;-0.80;99.90
37844;DHT22;63793;57.632;18.292;2022-11-20T14:53:38;-0.80;99.90
37844;DHT22;63793;57.632;18.292;2022-11-20T14:56:05;-0.80;99.90
37844;DHT22;63793;57.632;18.292;2022-11-20T14:58:33;-0.80;99.90
37844;DHT22;63793;57.632;18.292;2022-11-20T15:01:03;-0.90;99.90
37844;DHT22;63793;57.632;18.292;2022-11-20T15:05:59;-0.90;99.90
37844;DHT22;63793;57.632;18.292;2022-11-20T15:08:26;-0.90;99.90
37844;DHT22;63793;57.632;18.292;2022-11-20T15:10:54;-0.90;99.90
37844;DHT22;63793;57.632;18.292;2022-11-20T15:13:36;-0.90;99.90
37844;DHT22;63793;57.632;18.292;2022-11-20T15:16:08;-1.00;99.90
37844;DHT22;63793;57.632;18.292;2022-11-20T15:18:40;-1.00;99.90
37844;DHT22;63793;57.632;18.292;2022-11-20T15:21:13;-1.00;99.90
37844;DHT22;63793;57.632;18.292;2022-11-20T15:23:40;-1.00;99.90
37844;DHT22;63793;57.632;18.292;2022-11-20T15:26:08;-1.00;99.90
37844;DHT22;63793;57.632;18.292;2022-11-20T15:28:43;-1.00;99.90
37844;DHT22;63793;57.632;18.292;2022-11-20T15:31:16;-1.00;99.90
37844;DHT22;63793;57.632;18.292;2022-11-20T15:33:44;-1.00;99.90
37844;DHT22;63793;57.632;18.292;2022-11-20T15:36:10;-1.00;99.90
37844;DHT22;63793;57.632;18.292;2022-11-20T15:38:37;-1.00;99.90
37844;DHT22;63793;57.632;18.292;2022-11-20T15:41:04;-1.00;99.90
37844;DHT22;63793;57.632;18.292;2022-11-20T15:43:31;-1.00;99.90
37844;DHT22;63793;57.632;18.292;2022-11-20T15:46:00;-1.00;99.90
37844;DHT22;63793;57.632;18.292;2022-11-20T15:48:36;-1.00;99.90
37844;DHT22;63793;57.632;18.292;2022-11-20T15:53:39;-1.00;99.90
37844;DHT22;63793;57.632;18.292;2022-11-20T15:56:14;-1.10;99.90
37844;DHT22;63793;57.632;18.292;2022-11-20T15:58:41;-1.10;99.90
37844;DHT22;63793;57.632;18.292;2022-11-20T16:01:13;-1.10;99.90
37844;DHT22;63793;57.632;18.292;2022-11-20T16:03:41;-1.10;99.90
37844;DHT22;63793;57.632;18.292;2022-11-20T16:06:08;-1.10;99.90
37844;DHT22;63793;57.632;18.292;2022-11-20T16:08:35;-1.10;99.90
37844;DHT22;63793;57.632;18.292;2022-11-20T16:11:02;-1.10;99.90
37844;DHT22;63793;57.632;18.292;2022-11-20T16:13:31;-1.20;99.90
37844;DHT22;63793;57.632;18.292;2022-11-20T16:18:55;-1.20;99.90
37844;DHT22;63793;57.632;18.292;2022-11-20T16:21:22;-1.20;99.90
37844;DHT22;63793;57.632;18.292;2022-11-20T16:24:04;-1.30;99.90
37844;DHT22;63793;57.632;18.292;2022-11-20T16:26:33;-1.30;99.90
37844;DHT22;63793;57.632;18.292;2022-11-20T16:29:01;-1.40;99.90
37844;DHT22;63793;57.632;18.292;2022-11-20T16:31:29;-1.40;99.90
37844;DHT22;63793;57.632;18.292;2022-11-20T16:34:00;-1.50;99.90
37844;DHT22;63793;57.632;18.292;2022-11-20T16:36:29;-1.50;99.90
37844;DHT22;63793;57.632;18.292;2022-11-20T16:38:58;-1.60;99.90
37844;DHT22;63793;57.632;18.292;2022-11-20T16:41:32;-1.60;99.90
37844;DHT22;63793;57.632;18.292;2022-11-20T16:44:01;-1.60;99.90
37844;DHT22;63793;57.632;18.292;2022-11-20T16:46:30;-1.60;99.90
37844;DHT22;63793;57.632;18.292;2022-11-20T16:49:05;-1.70;99.90
37844;DHT22;63793;57.632;18.292;2022-11-20T16:51:35;-1.70;99.90
37844;DHT22;63793;57.632;18.292;2022-11-20T16:54:04;-1.70;99.90
37844;DHT22;63793;57.632;18.292;2022-11-20T16:56:32;-1.80;99.90
37844;DHT22;63793;57.632;18.292;2022-11-20T16:59:00;-1.80;99.90
37844;DHT22;63793;57.632;18.292;2022-11-20T17:01:29;-1.80;99.90
37844;DHT22;63793;57.632;18.292;2022-11-20T17:04:04;-1.80;99.90
37844;DHT22;63793;57.632;18.292;2022-11-20T17:06:33;-1.80;99.90
37844;DHT22;63793;57.632;18.292;2022-11-20T17:09:01;-1.80;99.90
37844;DHT22;63793;57.632;18.292;2022-11-20T17:11:29;-1.90;99.90
37844;DHT22;63793;57.632;18.292;2022-11-20T17:13:57;-1.90;99.90
37844;DHT22;63793;57.632;18.292;2022-11-20T17:16:26;-1.90;99.90
37844;DHT22;63793;57.632;18.292;2022-11-20T17:18:54;-1.90;99.90
37844;DHT22;63793;57.632;18.292;2022-11-20T17:21:28;-1.90;99.90
37844;DHT22;63793;57.632;18.292;2022-11-20T17:23:58;-2.00;99.90
37844;DHT22;63793;57.632;18.292;2022-11-20T17:26:25;-2.00;99.90
37844;DHT22;63793;57.632;18.292;2022-11-20T17:29:03;-2.00;99.90
37844;DHT22;63793;57.632;18.292;2022-11-20T17:31:32;-2.00;99.90
37844;DHT22;63793;57.632;18.292;2022-11-20T17:34:00;-2.00;99.90
37844;DHT22;63793;57.632;18.292;2022-11-20T17:36:28;-2.00;99.90
37844;DHT22;63793;57.632;18.292;2022-11-20T17:38:55;-2.00;99.90
37844;DHT22;63793;57.632;18.292;2022-11-20T17:41:24;-2.00;99.90
37844;DHT22;63793;57.632;18.292;2022-11-20T17:43:59;-2.00;99.90
37844;DHT22;63793;57.632;18.292;2022-11-20T17:46:28;-2.10;99.90